sensor_id;sensor_type;location;lat;lon;timestamp;P1;durP1;ratioP1;P2;durP2;ratioP2
56427;SDS011;42331;53.578;9.760;2023-05-23T00:01:40;15.00;;;11.83;;
56427;SDS011;42331;53.578;9.760;2023-05-23T00:04:12;18.67;;;12.05;;
56427;SDS011;42331;53.578;9.760;2023-05-23T00:06:46;15.38;;;11.15;;
56427;SDS011;42331;53.578;9.760;2023-05-23T00:09:19;13.07;;;11.60;;
56427;SDS011;42331;53.578;9.760;2023-05-23T00:11:50;13.88;;;11.63;;
56427;SDS011;42331;53.578;9.760;2023-05-23T00:14:21;13.82;;;11.32;;
56427;SDS011;42331;53.578;9.760;2023-05-23T00:16:52;14.63;;;12.02;;
56427;SDS011;42331;53.578;9.760;2023-05-23T00:19:24;14.48;;;11.05;;
56427;SDS011;42331;53.578;9.760;2023-05-23T00:21:54;14.32;;;12.07;;
56427;SDS011;42331;53.578;9.760;2023-05-23T00:24:25;12.57;;;10.50;;
56427;SDS011;42331;53.578;9.760;2023-05-23T00:26:56;13.13;;;11.73;;
56427;SDS011;42331;53.578;9.760;2023-05-23T00:29:28;14.93;;;10.60;;
56427;SDS011;42331;53.578;9.760;2023-05-23T00:31:58;13.03;;;10.30;;
56427;SDS011;42331;53.578;9.760;2023-05-23T00:34:29;13.45;;;10.25;;
56427;SDS011;42331;53.578;9.760;2023-05-23T00:37:01;11.88;;;10.18;;
56427;SDS011;42331;53.578;9.760;2023-05-23T00:39:33;13.40;;;10.88;;
56427;SDS011;42331;53.578;9.760;2023-05-23T00:42:04;12.18;;;9.10;;
56427;SDS011;42331;53.578;9.760;2023-05-23T00:44:35;12.77;;;9.68;;
56427;SDS011;42331;53.578;9.760;2023-05-23T00:47:06;11.50;;;8.83;;
56427;SDS011;42331;53.578;9.760;2023-05-23T00:49:37;11.00;;;8.82;;
56427;SDS011;42331;53.578;9.760;2023-05-23T00:52:09;11.80;;;8.55;;
56427;SDS011;42331;53.578;9.760;2023-05-23T00:54:40;11.23;;;9.10;;
56427;SDS011;42331;53.578;9.760;2023-05-23T00:57:11;9.98;;;8.70;;
56427;SDS011;42331;53.578;9.760;2023-05-23T00:59:42;11.50;;;9.65;;
56427;SDS011;42331;53.578;9.760;2023-05-23T01:02:15;10.23;;;9.00;;
56427;SDS011;42331;53.578;9.760;2023-05-23T01:04:49;11.13;;;9.50;;
56427;SDS011;42331;53.578;9.760;2023-05-23T01:07:23;10.55;;;9.45;;
56427;SDS011;42331;53.578;9.760;2023-05-23T01:09:54;11.05;;;9.88;;
56427;SDS011;42331;53.578;9.760;2023-05-23T01:15:20;16.00;;;11.85;;
56427;SDS011;42331;53.578;9.760;2023-05-23T01:17:58;17.15;;;15.38;;
56427;SDS011;42331;53.578;9.760;2023-05-23T01:20:34;25.80;;;23.02;;
56427;SDS011;42331;53.578;9.760;2023-05-23T01:26:14;31.63;;;28.33;;
56427;SDS011;42331;53.578;9.760;2023-05-23T01:29:07;33.10;;;29.17;;
56427;SDS011;42331;53.578;9.760;2023-05-23T01:31:43;32.80;;;29.33;;
56427;SDS011;42331;53.578;9.760;2023-05-23T01:34:16;35.75;;;30.83;;
56427;SDS011;42331;53.578;9.760;2023-05-23T01:39:20;38.75;;;33.83;;
56427;SDS011;42331;53.578;9.760;2023-05-23T01:41:51;37.95;;;33.20;;
56427;SDS011;42331;53.578;9.760;2023-05-23T01:44:22;44.00;;;35.30;;
56427;SDS011;42331;53.578;9.760;2023-05-23T01:46:53;45.63;;;36.20;;
56427;SDS011;42331;53.578;9.760;2023-05-23T01:49:24;47.90;;;37.03;;
56427;SDS011;42331;53.578;9.760;2023-05-23T01:54:28;49.95;;;36.38;;
56427;SDS011;42331;53.578;9.760;2023-05-23T01:56:59;55.85;;;38.90;;
56427;SDS011;42331;53.578;9.760;2023-05-23T01:59:31;50.42;;;36.67;;
56427;SDS011;42331;53.578;9.760;2023-05-23T02:02:01;59.83;;;37.43;;
56427;SDS011;42331;53.578;9.760;2023-05-23T02:04:33;58.33;;;39.23;;
56427;SDS011;42331;53.578;9.760;2023-05-23T02:07:04;62.80;;;38.90;;
56427;SDS011;42331;53.578;9.760;2023-05-23T02:09:35;59.30;;;39.87;;
56427;SDS011;42331;53.578;9.760;2023-05-23T02:12:06;56.47;;;39.38;;
56427;SDS011;42331;53.578;9.760;2023-05-23T02:14:36;58.92;;;40.08;;
56427;SDS011;42331;53.578;9.760;2023-05-23T02:17:08;68.47;;;38.90;;
56427;SDS011;42331;53.578;9.760;2023-05-23T02:19:39;62.07;;;40.47;;
56427;SDS011;42331;53.578;9.760;2023-05-23T02:22:10;55.33;;;37.97;;
56427;SDS011;42331;53.578;9.760;2023-05-23T02:24:40;58.40;;;36.92;;
56427;SDS011;42331;53.578;9.760;2023-05-23T02:27:11;55.67;;;36.63;;
56427;SDS011;42331;53.578;9.760;2023-05-23T02:29:42;55.80;;;37.13;;
56427;SDS011;42331;53.578;9.760;2023-05-23T02:32:13;49.27;;;34.50;;
56427;SDS011;42331;53.578;9.760;2023-05-23T02:34:43;55.97;;;37.25;;
56427;SDS011;42331;53.578;9.760;2023-05-23T02:37:19;56.67;;;35.78;;
56427;SDS011;42331;53.578;9.760;2023-05-23T02:39:50;56.75;;;34.90;;
56427;SDS011;42331;53.578;9.760;2023-05-23T02:42:20;43.35;;;24.67;;
56427;SDS011;42331;53.578;9.760;2023-05-23T02:44:51;51.97;;;32.90;;
56427;SDS011;42331;53.578;9.760;2023-05-23T02:47:22;51.53;;;32.37;;
56427;SDS011;42331;53.578;9.760;2023-05-23T02:49:53;44.13;;;30.73;;
56427;SDS011;42331;53.578;9.760;2023-05-23T02:52:24;54.25;;;30.45;;
56427;SDS011;42331;53.578;9.760;2023-05-23T02:54:55;53.55;;;32.03;;
56427;SDS011;42331;53.578;9.760;2023-05-23T02:57:25;48.10;;;29.42;;
56427;SDS011;42331;53.578;9.760;2023-05-23T02:59:56;51.08;;;31.10;;
56427;SDS011;42331;53.578;9.760;2023-05-23T03:02:27;44.53;;;30.85;;
56427;SDS011;42331;53.578;9.760;2023-05-23T03:04:58;43.08;;;29.80;;
56427;SDS011;42331;53.578;9.760;2023-05-23T03:07:28;51.42;;;30.33;;
56427;SDS011;42331;53.578;9.760;2023-05-23T03:09:59;34.33;;;22.35;;
56427;SDS011;42331;53.578;9.760;2023-05-23T03:12:30;53.22;;;30.25;;
56427;SDS011;42331;53.578;9.760;2023-05-23T03:15:01;45.17;;;30.25;;
56427;SDS011;42331;53.578;9.760;2023-05-23T03:17:32;44.47;;;29.92;;
56427;SDS011;42331;53.578;9.760;2023-05-23T03:20:03;45.60;;;30.03;;
56427;SDS011;42331;53.578;9.760;2023-05-23T03:25:05;45.08;;;27.58;;
56427;SDS011;42331;53.578;9.760;2023-05-23T03:27:36;45.42;;;28.30;;
56427;SDS011;42331;53.578;9.760;2023-05-23T03:30:07;50.53;;;29.92;;
56427;SDS011;42331;53.578;9.760;2023-05-23T03:32:38;46.10;;;29.08;;
56427;SDS011;42331;53.578;9.760;2023-05-23T03:35:10;48.33;;;30.02;;
56427;SDS011;42331;53.578;9.760;2023-05-23T03:37:41;50.88;;;28.83;;
56427;SDS011;42331;53.578;9.760;2023-05-23T03:40:11;46.50;;;28.27;;
56427;SDS011;42331;53.578;9.760;2023-05-23T03:42:42;45.25;;;28.75;;
56427;SDS011;42331;53.578;9.760;2023-05-23T03:45:13;48.10;;;27.95;;
56427;SDS011;42331;53.578;9.760;2023-05-23T03:47:43;49.20;;;28.38;;
56427;SDS011;42331;53.578;9.760;2023-05-23T03:50:14;43.75;;;28.27;;
56427;SDS011;42331;53.578;9.760;2023-05-23T03:52:45;59.63;;;30.05;;
56427;SDS011;42331;53.578;9.760;2023-05-23T03:55:16;45.10;;;29.00;;
56427;SDS011;42331;53.578;9.760;2023-05-23T03:57:51;55.53;;;29.42;;
56427;SDS011;42331;53.578;9.760;2023-05-23T04:00:21;48.92;;;28.90;;
56427;SDS011;42331;53.578;9.760;2023-05-23T04:02:52;50.10;;;29.58;;
56427;SDS011;42331;53.578;9.760;2023-05-23T04:05:23;50.47;;;29.20;;
56427;SDS011;42331;53.578;9.760;2023-05-23T04:07:54;52.70;;;29.80;;
56427;SDS011;42331;53.578;9.760;2023-05-23T04:10:24;50.42;;;27.05;;
56427;SDS011;42331;53.578;9.760;2023-05-23T04:12:55;53.08;;;29.92;;
56427;SDS011;42331;53.578;9.760;2023-05-23T04:15:26;49.72;;;28.38;;
56427;SDS011;42331;53.578;9.760;2023-05-23T04:17:57;47.95;;;27.25;;
56427;SDS011;42331;53.578;9.760;2023-05-23T04:20:27;54.70;;;28.52;;
56427;SDS011;42331;53.578;9.760;2023-05-23T04:22:59;46.72;;;27.55;;
56427;SDS011;42331;53.578;9.760;2023-05-23T04:25:30;53.83;;;28.08;;
56427;SDS011;42331;53.578;9.760;2023-05-23T04:28:00;47.60;;;27.33;;
56427;SDS011;42331;53.578;9.760;2023-05-23T04:30:31;50.17;;;27.27;;
56427;SDS011;42331;53.578;9.760;2023-05-23T04:33:05;52.20;;;28.90;;
56427;SDS011;42331;53.578;9.760;2023-05-23T04:35:36;52.92;;;29.80;;
56427;SDS011;42331;53.578;9.760;2023-05-23T04:38:10;60.17;;;29.42;;
56427;SDS011;42331;53.578;9.760;2023-05-23T04:40:42;53.50;;;29.63;;
56427;SDS011;42331;53.578;9.760;2023-05-23T04:43:13;61.08;;;30.73;;
56427;SDS011;42331;53.578;9.760;2023-05-23T04:48:18;59.63;;;30.13;;
56427;SDS011;42331;53.578;9.760;2023-05-23T04:50:50;60.25;;;30.95;;
56427;SDS011;42331;53.578;9.760;2023-05-23T04:53:21;61.58;;;30.92;;
56427;SDS011;42331;53.578;9.760;2023-05-23T04:55:52;64.37;;;31.13;;
56427;SDS011;42331;53.578;9.760;2023-05-23T04:58:23;41.95;;;22.33;;
56427;SDS011;42331;53.578;9.760;2023-05-23T05:00:54;67.32;;;33.75;;
56427;SDS011;42331;53.578;9.760;2023-05-23T05:03:25;67.10;;;33.15;;
56427;SDS011;42331;53.578;9.760;2023-05-23T05:05:55;72.22;;;35.72;;
56427;SDS011;42331;53.578;9.760;2023-05-23T05:08:26;65.93;;;34.70;;
56427;SDS011;42331;53.578;9.760;2023-05-23T05:10:57;68.88;;;34.30;;
56427;SDS011;42331;53.578;9.760;2023-05-23T05:13:28;64.10;;;35.53;;
56427;SDS011;42331;53.578;9.760;2023-05-23T05:15:59;66.70;;;34.78;;
56427;SDS011;42331;53.578;9.760;2023-05-23T05:18:30;74.20;;;35.58;;
56427;SDS011;42331;53.578;9.760;2023-05-23T05:21:00;70.38;;;34.38;;
56427;SDS011;42331;53.578;9.760;2023-05-23T05:23:31;76.53;;;37.42;;
56427;SDS011;42331;53.578;9.760;2023-05-23T05:26:03;66.25;;;35.17;;
56427;SDS011;42331;53.578;9.760;2023-05-23T05:28:34;72.33;;;35.00;;
56427;SDS011;42331;53.578;9.760;2023-05-23T05:31:05;67.10;;;35.63;;
56427;SDS011;42331;53.578;9.760;2023-05-23T05:33:36;72.07;;;36.25;;
56427;SDS011;42331;53.578;9.760;2023-05-23T05:36:09;71.82;;;37.22;;
56427;SDS011;42331;53.578;9.760;2023-05-23T05:38:40;64.65;;;34.70;;
56427;SDS011;42331;53.578;9.760;2023-05-23T05:41:10;67.43;;;33.67;;
56427;SDS011;42331;53.578;9.760;2023-05-23T05:43:41;64.93;;;35.27;;
56427;SDS011;42331;53.578;9.760;2023-05-23T05:46:12;69.93;;;35.72;;
56427;SDS011;42331;53.578;9.760;2023-05-23T05:48:43;66.27;;;34.70;;
56427;SDS011;42331;53.578;9.760;2023-05-23T05:51:15;65.05;;;34.05;;
56427;SDS011;42331;53.578;9.760;2023-05-23T05:53:46;70.53;;;36.13;;
56427;SDS011;42331;53.578;9.760;2023-05-23T05:58:49;79.78;;;37.17;;
56427;SDS011;42331;53.578;9.760;2023-05-23T06:01:20;86.30;;;38.20;;
56427;SDS011;42331;53.578;9.760;2023-05-23T06:03:51;98.45;;;38.97;;
56427;SDS011;42331;53.578;9.760;2023-05-23T06:06:25;97.95;;;42.10;;
56427;SDS011;42331;53.578;9.760;2023-05-23T06:08:56;90.18;;;41.67;;
56427;SDS011;42331;53.578;9.760;2023-05-23T06:11:26;82.93;;;39.55;;
56427;SDS011;42331;53.578;9.760;2023-05-23T06:13:57;81.15;;;37.30;;
56427;SDS011;42331;53.578;9.760;2023-05-23T06:16:28;77.05;;;37.15;;
56427;SDS011;42331;53.578;9.760;2023-05-23T06:18:59;74.05;;;36.58;;
56427;SDS011;42331;53.578;9.760;2023-05-23T06:21:30;75.85;;;37.03;;
56427;SDS011;42331;53.578;9.760;2023-05-23T06:24:01;66.95;;;33.72;;
56427;SDS011;42331;53.578;9.760;2023-05-23T06:26:32;68.50;;;34.08;;
56427;SDS011;42331;53.578;9.760;2023-05-23T06:29:03;56.60;;;31.92;;
56427;SDS011;42331;53.578;9.760;2023-05-23T06:31:33;55.90;;;28.85;;
56427;SDS011;42331;53.578;9.760;2023-05-23T06:34:05;44.40;;;27.60;;
56427;SDS011;42331;53.578;9.760;2023-05-23T06:36:35;37.85;;;24.88;;
56427;SDS011;42331;53.578;9.760;2023-05-23T06:39:06;33.30;;;21.23;;
56427;SDS011;42331;53.578;9.760;2023-05-23T06:41:39;32.42;;;21.15;;
56427;SDS011;42331;53.578;9.760;2023-05-23T06:44:10;30.50;;;19.88;;
56427;SDS011;42331;53.578;9.760;2023-05-23T06:46:46;31.58;;;19.33;;
56427;SDS011;42331;53.578;9.760;2023-05-23T06:49:17;22.13;;;15.00;;
56427;SDS011;42331;53.578;9.760;2023-05-23T06:51:49;16.77;;;10.75;;
56427;SDS011;42331;53.578;9.760;2023-05-23T06:54:20;14.63;;;10.20;;
56427;SDS011;42331;53.578;9.760;2023-05-23T06:56:50;10.02;;;7.32;;
56427;SDS011;42331;53.578;9.760;2023-05-23T06:59:21;11.18;;;7.22;;
56427;SDS011;42331;53.578;9.760;2023-05-23T07:01:52;14.68;;;10.32;;
56427;SDS011;42331;53.578;9.760;2023-05-23T07:04:23;14.02;;;10.40;;
56427;SDS011;42331;53.578;9.760;2023-05-23T07:06:53;13.40;;;9.57;;
56427;SDS011;42331;53.578;9.760;2023-05-23T07:09:24;16.23;;;10.63;;
56427;SDS011;42331;53.578;9.760;2023-05-23T07:11:55;12.70;;;9.63;;
56427;SDS011;42331;53.578;9.760;2023-05-23T07:14:26;15.68;;;9.88;;
56427;SDS011;42331;53.578;9.760;2023-05-23T07:16:57;17.58;;;10.23;;
56427;SDS011;42331;53.578;9.760;2023-05-23T07:19:27;14.18;;;9.55;;
56427;SDS011;42331;53.578;9.760;2023-05-23T07:21:58;17.83;;;9.32;;
56427;SDS011;42331;53.578;9.760;2023-05-23T07:24:29;12.38;;;9.20;;
56427;SDS011;42331;53.578;9.760;2023-05-23T07:27:00;14.77;;;10.10;;
56427;SDS011;42331;53.578;9.760;2023-05-23T07:29:30;11.95;;;8.25;;
56427;SDS011;42331;53.578;9.760;2023-05-23T07:32:01;11.32;;;8.35;;
56427;SDS011;42331;53.578;9.760;2023-05-23T07:34:34;12.40;;;8.30;;
56427;SDS011;42331;53.578;9.760;2023-05-23T07:37:05;15.68;;;9.05;;
56427;SDS011;42331;53.578;9.760;2023-05-23T07:39:36;12.00;;;7.68;;
56427;SDS011;42331;53.578;9.760;2023-05-23T07:42:07;12.98;;;8.35;;
56427;SDS011;42331;53.578;9.760;2023-05-23T07:44:37;12.32;;;8.43;;
56427;SDS011;42331;53.578;9.760;2023-05-23T07:47:10;11.57;;;7.70;;
56427;SDS011;42331;53.578;9.760;2023-05-23T07:49:41;10.77;;;7.90;;
56427;SDS011;42331;53.578;9.760;2023-05-23T07:52:12;11.23;;;7.60;;
56427;SDS011;42331;53.578;9.760;2023-05-23T07:54:42;10.35;;;7.25;;
56427;SDS011;42331;53.578;9.760;2023-05-23T07:57:13;10.45;;;7.65;;
56427;SDS011;42331;53.578;9.760;2023-05-23T07:59:45;9.15;;;7.30;;
56427;SDS011;42331;53.578;9.760;2023-05-23T08:02:16;10.35;;;6.97;;
56427;SDS011;42331;53.578;9.760;2023-05-23T08:04:47;11.15;;;7.22;;
56427;SDS011;42331;53.578;9.760;2023-05-23T08:07:19;14.63;;;6.60;;
56427;SDS011;42331;53.578;9.760;2023-05-23T08:09:50;11.27;;;7.43;;
56427;SDS011;42331;53.578;9.760;2023-05-23T08:12:21;9.10;;;7.15;;
56427;SDS011;42331;53.578;9.760;2023-05-23T08:14:52;10.07;;;7.15;;
56427;SDS011;42331;53.578;9.760;2023-05-23T08:17:23;12.00;;;7.03;;
56427;SDS011;42331;53.578;9.760;2023-05-23T08:19:54;11.57;;;8.10;;
56427;SDS011;42331;53.578;9.760;2023-05-23T08:22:25;10.63;;;6.63;;
56427;SDS011;42331;53.578;9.760;2023-05-23T08:24:55;9.57;;;6.72;;
56427;SDS011;42331;53.578;9.760;2023-05-23T08:27:31;10.68;;;6.80;;
56427;SDS011;42331;53.578;9.760;2023-05-23T08:30:05;9.30;;;6.45;;
56427;SDS011;42331;53.578;9.760;2023-05-23T08:32:38;14.45;;;6.47;;
56427;SDS011;42331;53.578;9.760;2023-05-23T08:35:09;13.43;;;7.00;;
56427;SDS011;42331;53.578;9.760;2023-05-23T08:37:41;10.57;;;6.32;;
56427;SDS011;42331;53.578;9.760;2023-05-23T08:40:19;14.80;;;7.15;;
56427;SDS011;42331;53.578;9.760;2023-05-23T08:42:50;11.80;;;7.20;;
56427;SDS011;42331;53.578;9.760;2023-05-23T08:45:21;11.77;;;7.18;;
56427;SDS011;42331;53.578;9.760;2023-05-23T08:47:52;17.45;;;7.68;;
56427;SDS011;42331;53.578;9.760;2023-05-23T08:52:57;23.95;;;8.02;;
56427;SDS011;42331;53.578;9.760;2023-05-23T08:55:28;17.58;;;8.10;;
56427;SDS011;42331;53.578;9.760;2023-05-23T08:57:59;14.38;;;6.90;;
56427;SDS011;42331;53.578;9.760;2023-05-23T09:00:30;15.63;;;7.35;;
56427;SDS011;42331;53.578;9.760;2023-05-23T09:03:02;13.07;;;7.30;;
56427;SDS011;42331;53.578;9.760;2023-05-23T09:05:33;16.98;;;7.07;;
56427;SDS011;42331;53.578;9.760;2023-05-23T09:08:04;16.15;;;6.40;;
56427;SDS011;42331;53.578;9.760;2023-05-23T09:10:35;14.02;;;6.38;;
56427;SDS011;42331;53.578;9.760;2023-05-23T09:13:06;13.05;;;4.50;;
56427;SDS011;42331;53.578;9.760;2023-05-23T09:15:54;12.50;;;5.57;;
56427;SDS011;42331;53.578;9.760;2023-05-23T09:18:32;17.85;;;5.75;;
56427;SDS011;42331;53.578;9.760;2023-05-23T09:21:06;14.13;;;5.60;;
56427;SDS011;42331;53.578;9.760;2023-05-23T09:23:39;13.07;;;4.57;;
56427;SDS011;42331;53.578;9.760;2023-05-23T09:26:10;13.50;;;4.82;;
56427;SDS011;42331;53.578;9.760;2023-05-23T09:28:44;11.90;;;4.53;;
56427;SDS011;42331;53.578;9.760;2023-05-23T09:31:16;9.37;;;4.03;;
56427;SDS011;42331;53.578;9.760;2023-05-23T09:33:47;9.50;;;3.58;;
56427;SDS011;42331;53.578;9.760;2023-05-23T09:36:21;9.02;;;2.88;;
56427;SDS011;42331;53.578;9.760;2023-05-23T09:38:52;12.88;;;3.42;;
56427;SDS011;42331;53.578;9.760;2023-05-23T09:41:23;6.68;;;2.58;;
56427;SDS011;42331;53.578;9.760;2023-05-23T09:43:54;8.98;;;3.05;;
56427;SDS011;42331;53.578;9.760;2023-05-23T09:46:27;7.63;;;2.63;;
56427;SDS011;42331;53.578;9.760;2023-05-23T09:48:59;9.43;;;2.97;;
56427;SDS011;42331;53.578;9.760;2023-05-23T09:51:30;7.53;;;2.55;;
56427;SDS011;42331;53.578;9.760;2023-05-23T09:54:01;13.48;;;2.60;;
56427;SDS011;42331;53.578;9.760;2023-05-23T09:56:32;11.43;;;2.63;;
56427;SDS011;42331;53.578;9.760;2023-05-23T09:59:06;10.20;;;3.20;;
56427;SDS011;42331;53.578;9.760;2023-05-23T10:01:38;7.57;;;2.90;;
56427;SDS011;42331;53.578;9.760;2023-05-23T10:04:10;7.82;;;3.00;;
56427;SDS011;42331;53.578;9.760;2023-05-23T10:06:43;9.90;;;3.42;;
56427;SDS011;42331;53.578;9.760;2023-05-23T10:09:24;9.48;;;4.10;;
56427;SDS011;42331;53.578;9.760;2023-05-23T10:14:29;11.70;;;4.25;;
56427;SDS011;42331;53.578;9.760;2023-05-23T10:17:05;12.55;;;3.58;;
56427;SDS011;42331;53.578;9.760;2023-05-23T10:19:43;10.00;;;3.13;;
56427;SDS011;42331;53.578;9.760;2023-05-23T10:22:17;9.15;;;3.40;;
56427;SDS011;42331;53.578;9.760;2023-05-23T10:24:48;11.50;;;2.67;;
56427;SDS011;42331;53.578;9.760;2023-05-23T10:27:20;7.93;;;2.88;;
56427;SDS011;42331;53.578;9.760;2023-05-23T10:29:51;8.95;;;2.78;;
56427;SDS011;42331;53.578;9.760;2023-05-23T10:32:22;11.02;;;4.05;;
56427;SDS011;42331;53.578;9.760;2023-05-23T10:35:03;14.10;;;3.80;;
56427;SDS011;42331;53.578;9.760;2023-05-23T10:37:58;11.18;;;3.80;;
56427;SDS011;42331;53.578;9.760;2023-05-23T10:41:01;13.13;;;4.53;;
56427;SDS011;42331;53.578;9.760;2023-05-23T10:46:13;11.95;;;4.10;;
56427;SDS011;42331;53.578;9.760;2023-05-23T10:48:44;17.65;;;4.45;;
56427;SDS011;42331;53.578;9.760;2023-05-23T10:51:15;14.25;;;4.22;;
56427;SDS011;42331;53.578;9.760;2023-05-23T10:53:49;13.23;;;3.80;;
56427;SDS011;42331;53.578;9.760;2023-05-23T10:56:23;7.75;;;3.72;;
56427;SDS011;42331;53.578;9.760;2023-05-23T10:58:55;14.00;;;3.90;;
56427;SDS011;42331;53.578;9.760;2023-05-23T11:01:27;15.57;;;4.05;;
56427;SDS011;42331;53.578;9.760;2023-05-23T11:03:58;12.50;;;4.63;;
56427;SDS011;42331;53.578;9.760;2023-05-23T11:06:41;12.63;;;4.22;;
56427;SDS011;42331;53.578;9.760;2023-05-23T11:09:14;15.40;;;3.60;;
56427;SDS011;42331;53.578;9.760;2023-05-23T11:17:16;14.23;;;3.50;;
56427;SDS011;42331;53.578;9.760;2023-05-23T11:20:00;12.77;;;3.37;;
56427;SDS011;42331;53.578;9.760;2023-05-23T11:22:35;14.27;;;3.17;;
56427;SDS011;42331;53.578;9.760;2023-05-23T11:25:07;12.88;;;3.53;;
56427;SDS011;42331;53.578;9.760;2023-05-23T11:27:44;15.50;;;3.10;;
56427;SDS011;42331;53.578;9.760;2023-05-23T11:30:16;11.68;;;3.00;;
56427;SDS011;42331;53.578;9.760;2023-05-23T11:32:51;12.10;;;3.05;;
56427;SDS011;42331;53.578;9.760;2023-05-23T11:35:24;14.68;;;3.60;;
56427;SDS011;42331;53.578;9.760;2023-05-23T11:43:10;17.55;;;3.85;;
56427;SDS011;42331;53.578;9.760;2023-05-23T11:45:43;11.48;;;3.45;;
56427;SDS011;42331;53.578;9.760;2023-05-23T11:48:15;14.07;;;3.80;;
56427;SDS011;42331;53.578;9.760;2023-05-23T11:50:50;15.35;;;2.92;;
56427;SDS011;42331;53.578;9.760;2023-05-23T11:53:26;13.13;;;2.97;;
56427;SDS011;42331;53.578;9.760;2023-05-23T11:56:00;16.48;;;3.28;;
56427;SDS011;42331;53.578;9.760;2023-05-23T11:58:32;14.45;;;3.33;;
56427;SDS011;42331;53.578;9.760;2023-05-23T12:01:05;17.25;;;3.78;;
56427;SDS011;42331;53.578;9.760;2023-05-23T12:03:47;13.32;;;3.10;;
56427;SDS011;42331;53.578;9.760;2023-05-23T12:06:31;13.32;;;2.88;;
56427;SDS011;42331;53.578;9.760;2023-05-23T12:09:03;13.07;;;2.72;;
56427;SDS011;42331;53.578;9.760;2023-05-23T12:11:34;14.70;;;3.00;;
56427;SDS011;42331;53.578;9.760;2023-05-23T12:14:05;17.05;;;3.50;;
56427;SDS011;42331;53.578;9.760;2023-05-23T12:16:41;13.75;;;3.22;;
56427;SDS011;42331;53.578;9.760;2023-05-23T12:19:17;14.35;;;2.60;;
56427;SDS011;42331;53.578;9.760;2023-05-23T12:21:51;11.77;;;3.03;;
56427;SDS011;42331;53.578;9.760;2023-05-23T12:24:22;15.25;;;3.05;;
56427;SDS011;42331;53.578;9.760;2023-05-23T12:26:54;13.20;;;3.03;;
56427;SDS011;42331;53.578;9.760;2023-05-23T12:29:28;13.52;;;3.15;;
56427;SDS011;42331;53.578;9.760;2023-05-23T12:32:03;11.57;;;2.92;;
56427;SDS011;42331;53.578;9.760;2023-05-23T12:34:39;15.27;;;2.83;;
56427;SDS011;42331;53.578;9.760;2023-05-23T12:37:12;19.73;;;3.50;;
56427;SDS011;42331;53.578;9.760;2023-05-23T12:39:43;11.18;;;3.03;;
56427;SDS011;42331;53.578;9.760;2023-05-23T12:42:14;15.00;;;2.93;;
56427;SDS011;42331;53.578;9.760;2023-05-23T12:44:45;11.00;;;2.63;;
56427;SDS011;42331;53.578;9.760;2023-05-23T12:47:20;15.93;;;3.22;;
56427;SDS011;42331;53.578;9.760;2023-05-23T12:49:51;11.82;;;3.28;;
56427;SDS011;42331;53.578;9.760;2023-05-23T12:52:22;11.63;;;3.38;;
56427;SDS011;42331;53.578;9.760;2023-05-23T12:54:52;15.50;;;3.30;;
56427;SDS011;42331;53.578;9.760;2023-05-23T12:57:23;16.10;;;2.97;;
56427;SDS011;42331;53.578;9.760;2023-05-23T12:59:54;13.95;;;2.95;;
56427;SDS011;42331;53.578;9.760;2023-05-23T13:02:25;12.65;;;3.28;;
56427;SDS011;42331;53.578;9.760;2023-05-23T13:07:27;15.23;;;2.15;;
56427;SDS011;42331;53.578;9.760;2023-05-23T13:09:58;10.43;;;2.78;;
56427;SDS011;42331;53.578;9.760;2023-05-23T13:12:29;13.77;;;2.63;;
56427;SDS011;42331;53.578;9.760;2023-05-23T13:15:00;10.48;;;2.75;;
56427;SDS011;42331;53.578;9.760;2023-05-23T13:17:31;11.75;;;2.72;;
56427;SDS011;42331;53.578;9.760;2023-05-23T13:20:02;20.48;;;2.75;;
56427;SDS011;42331;53.578;9.760;2023-05-23T13:25:05;12.30;;;3.15;;
56427;SDS011;42331;53.578;9.760;2023-05-23T13:27:37;14.48;;;3.10;;
56427;SDS011;42331;53.578;9.760;2023-05-23T13:30:08;15.20;;;2.38;;
56427;SDS011;42331;53.578;9.760;2023-05-23T13:32:39;11.18;;;2.70;;
56427;SDS011;42331;53.578;9.760;2023-05-23T13:35:10;15.43;;;2.55;;
56427;SDS011;42331;53.578;9.760;2023-05-23T13:37:40;14.20;;;2.55;;
56427;SDS011;42331;53.578;9.760;2023-05-23T13:40:12;17.67;;;3.30;;
56427;SDS011;42331;53.578;9.760;2023-05-23T13:42:50;16.02;;;2.65;;
56427;SDS011;42331;53.578;9.760;2023-05-23T13:45:21;16.08;;;3.33;;
56427;SDS011;42331;53.578;9.760;2023-05-23T13:47:52;12.95;;;2.72;;
56427;SDS011;42331;53.578;9.760;2023-05-23T13:50:23;13.60;;;2.72;;
56427;SDS011;42331;53.578;9.760;2023-05-23T13:52:53;16.98;;;2.88;;
56427;SDS011;42331;53.578;9.760;2023-05-23T13:55:25;17.60;;;3.55;;
56427;SDS011;42331;53.578;9.760;2023-05-23T13:57:56;15.10;;;2.67;;
56427;SDS011;42331;53.578;9.760;2023-05-23T14:00:27;13.25;;;3.03;;
56427;SDS011;42331;53.578;9.760;2023-05-23T14:02:57;16.40;;;2.97;;
56427;SDS011;42331;53.578;9.760;2023-05-23T14:05:28;12.95;;;2.58;;
56427;SDS011;42331;53.578;9.760;2023-05-23T14:07:59;15.40;;;3.15;;
56427;SDS011;42331;53.578;9.760;2023-05-23T14:10:30;14.88;;;2.42;;
56427;SDS011;42331;53.578;9.760;2023-05-23T14:13:02;14.27;;;2.78;;
56427;SDS011;42331;53.578;9.760;2023-05-23T14:15:33;14.07;;;2.63;;
56427;SDS011;42331;53.578;9.760;2023-05-23T14:18:04;16.63;;;2.95;;
56427;SDS011;42331;53.578;9.760;2023-05-23T14:20:34;10.02;;;2.05;;
56427;SDS011;42331;53.578;9.760;2023-05-23T14:23:06;15.68;;;2.70;;
56427;SDS011;42331;53.578;9.760;2023-05-23T14:25:36;15.73;;;2.38;;
56427;SDS011;42331;53.578;9.760;2023-05-23T14:28:07;14.82;;;2.70;;
56427;SDS011;42331;53.578;9.760;2023-05-23T14:30:38;17.52;;;2.92;;
56427;SDS011;42331;53.578;9.760;2023-05-23T14:33:08;12.98;;;2.55;;
56427;SDS011;42331;53.578;9.760;2023-05-23T14:35:39;19.45;;;3.30;;
56427;SDS011;42331;53.578;9.760;2023-05-23T14:40:42;16.23;;;2.60;;
56427;SDS011;42331;53.578;9.760;2023-05-23T14:43:14;10.20;;;2.00;;
56427;SDS011;42331;53.578;9.760;2023-05-23T14:45:44;8.65;;;1.30;;
56427;SDS011;42331;53.578;9.760;2023-05-23T14:48:15;12.57;;;2.70;;
56427;SDS011;42331;53.578;9.760;2023-05-23T14:50:46;20.67;;;3.58;;
56427;SDS011;42331;53.578;9.760;2023-05-23T14:53:17;16.10;;;2.85;;
56427;SDS011;42331;53.578;9.760;2023-05-23T14:55:51;17.92;;;3.17;;
56427;SDS011;42331;53.578;9.760;2023-05-23T14:58:22;15.82;;;2.47;;
56427;SDS011;42331;53.578;9.760;2023-05-23T15:00:54;18.35;;;3.03;;
56427;SDS011;42331;53.578;9.760;2023-05-23T15:03:26;23.83;;;3.42;;
56427;SDS011;42331;53.578;9.760;2023-05-23T15:05:58;18.17;;;2.85;;
56427;SDS011;42331;53.578;9.760;2023-05-23T15:08:29;18.35;;;2.97;;
56427;SDS011;42331;53.578;9.760;2023-05-23T15:11:00;15.55;;;3.00;;
56427;SDS011;42331;53.578;9.760;2023-05-23T15:13:38;18.13;;;2.83;;
56427;SDS011;42331;53.578;9.760;2023-05-23T15:16:09;14.27;;;2.42;;
56427;SDS011;42331;53.578;9.760;2023-05-23T15:18:40;17.25;;;2.65;;
56427;SDS011;42331;53.578;9.760;2023-05-23T15:21:11;10.50;;;2.03;;
56427;SDS011;42331;53.578;9.760;2023-05-23T15:23:42;21.95;;;3.20;;
56427;SDS011;42331;53.578;9.760;2023-05-23T15:26:12;17.23;;;2.65;;
56427;SDS011;42331;53.578;9.760;2023-05-23T15:28:43;16.25;;;2.95;;
56427;SDS011;42331;53.578;9.760;2023-05-23T15:31:14;18.90;;;3.22;;
56427;SDS011;42331;53.578;9.760;2023-05-23T15:33:44;11.07;;;2.38;;
56427;SDS011;42331;53.578;9.760;2023-05-23T15:36:19;18.38;;;2.90;;
56427;SDS011;42331;53.578;9.760;2023-05-23T15:38:49;19.20;;;2.88;;
56427;SDS011;42331;53.578;9.760;2023-05-23T15:41:20;10.23;;;2.63;;
56427;SDS011;42331;53.578;9.760;2023-05-23T15:43:51;15.85;;;2.85;;